Goodsprings, AL (35560)

6:31 AM CDT on May 22, 2015 (GMT -0500)
Hay Valley | | Change Station
CLOSE
Current Station
Personal Weather Station
Location: Parrish, AL
Elevation: 482 ft
Nearby Weather Stations

Elev 482 ft 33.77 °N, 87.27 °W | Updated 4 minutes ago

Clear
Clear
47.3 °F
Feels Like 47 °F
N
0.0
Wind Variable Wind from NE

Today
High -- | Low -- °F
--% Chance of Precip.
Yesterday
High -- | Low -- °F
Precip. -- in
5:43 AM 7:47 PM
Waxing Crescent, 20% visible
Pressure 30.23 in
Visibility 3.0 miles
Clouds Clear
Windchill 47 °F
Dew Point 45 °F
Humidity 93%
Rainfall 0.00 in
Snow Depth Not available.
UV 0 out of 12
Pollen 6.00 out of 12
Air Quality Not available.
Flu Activity Sporadic
METAR KJFX 221115Z AUTO 00000KT 3SM BR CLR 07/07 A3023 RMK A02 P-128

More Conditions Fewer Conditions

Pressure 30.23 in
Visibility 3.0 miles
Clouds Clear
Windchill 47 °F
Dew Point 45 °F
Humidity 93%
Rainfall 0.00 in
Snow Depth Not available.
UV 0 out of 12
Pollen 6.00 out of 12
Air Quality Not available.
Flu Activity Sporadic
METAR KJFX 221115Z AUTO 00000KT 3SM BR CLR 07/07 A3023 RMK A02 P-128

More Conditions Fewer Conditions

10-Day Weather Forecast

Almanac

Astronomy

May. 22, 2015 Rise Set
Actual Time
Civil Twilight
Nautical Twilight
Astronomical Twilight
Moon
Length of Visible Light
Length of Day
Tomorrow will be .
, % of the Moon is Illuminated

Today's Extremes

State Highs State Lows

Community

WunderPhotos

Upload Photos

1,823,206 photos uploaded!

WunderBlogs® & News

Nearby

Air Quality

  Air Quality AQ Index Pollutant
Not available.

Snow Depth

Station Depth Elevation

Earthquake Activity

City Distance Mag. Time & Date
Minimum magnitude displayed is 2.5.

Coastal Water Temperatures

Place Temperature

Stations

Nearby Weather Stations

Station Location Temp. Windchill Dew Point Humidity Wind Precip. Elev Updated Type